createdAt,value
2018-09-14T00:00:53.468Z,0.93
2018-09-14T00:03:24.421Z,0.80
2018-09-14T00:05:55.366Z,1.37
2018-09-14T00:08:26.296Z,0.70
2018-09-14T00:10:57.235Z,0.80
2018-09-14T00:13:28.222Z,1.00
2018-09-14T00:15:59.180Z,1.00
2018-09-14T00:18:30.138Z,0.57
2018-09-14T00:21:01.087Z,0.97
2018-09-14T00:23:32.058Z,1.03
2018-09-14T00:26:03.023Z,1.13
2018-09-14T00:28:33.998Z,0.90
2018-09-14T00:31:04.941Z,0.90
2018-09-14T00:33:35.940Z,0.73
2018-09-14T00:36:06.872Z,0.73
2018-09-14T00:38:37.820Z,1.03
2018-09-14T00:41:08.752Z,1.03
2018-09-14T00:43:39.708Z,0.70
2018-09-14T00:46:10.688Z,0.90
2018-09-14T00:48:41.700Z,0.93
2018-09-14T00:51:12.636Z,0.83
2018-09-14T00:53:43.573Z,0.80
2018-09-14T00:56:14.521Z,0.90
2018-09-14T00:58:45.456Z,0.77
2018-09-14T01:01:16.388Z,0.70
2018-09-14T01:03:47.366Z,0.90
2018-09-14T01:06:18.338Z,0.60
2018-09-14T01:08:49.285Z,0.70
2018-09-14T01:11:20.297Z,0.80
2018-09-14T01:13:51.238Z,0.90
2018-09-14T01:16:22.233Z,0.77
2018-09-14T01:18:53.165Z,0.80
2018-09-14T01:21:24.109Z,0.70
2018-09-14T01:23:55.049Z,0.63
2018-09-14T01:26:25.992Z,0.60
2018-09-14T01:28:56.933Z,0.50
2018-09-14T01:31:27.870Z,0.70
2018-09-14T01:33:58.818Z,0.53
2018-09-14T01:36:29.754Z,0.83
2018-09-14T01:39:00.702Z,0.87
2018-09-14T01:41:31.652Z,0.73
2018-09-14T01:44:02.606Z,0.90
2018-09-14T01:46:33.561Z,0.70
2018-09-14T01:49:04.538Z,0.70
2018-09-14T01:51:35.893Z,0.60
2018-09-14T01:54:06.829Z,1.03
2018-09-14T01:56:37.773Z,0.67
2018-09-14T01:59:08.729Z,0.53
2018-09-14T02:01:39.676Z,0.53
2018-09-14T02:04:10.615Z,0.60
2018-09-14T02:06:41.597Z,0.60
2018-09-14T02:09:12.572Z,0.90
2018-09-14T02:11:43.557Z,0.60
2018-09-14T02:14:14.538Z,0.77
2018-09-14T02:16:45.579Z,0.57
2018-09-14T02:19:16.498Z,0.40
2018-09-14T02:21:47.453Z,0.50
2018-09-14T02:24:18.401Z,0.73
2018-09-14T02:26:49.356Z,0.50
2018-09-14T02:29:20.308Z,0.60
2018-09-14T02:31:51.310Z,0.67
2018-09-14T02:34:22.233Z,0.40
2018-09-14T02:36:53.199Z,0.47
2018-09-14T02:39:24.145Z,0.47
2018-09-14T02:41:55.189Z,0.80
2018-09-14T02:44:26.125Z,0.43
2018-09-14T02:46:57.079Z,0.50
2018-09-14T02:49:28.033Z,0.40
2018-09-14T02:51:58.962Z,0.73
2018-09-14T02:54:30.010Z,0.40
2018-09-14T02:57:00.946Z,0.50
2018-09-14T02:59:31.923Z,0.40
2018-09-14T03:02:02.867Z,0.47
2018-09-14T03:04:33.813Z,0.50
2018-09-14T03:07:04.990Z,0.60
2018-09-14T03:09:35.931Z,0.47
2018-09-14T03:12:06.867Z,0.50
2018-09-14T03:14:37.809Z,0.60
2018-09-14T03:17:08.762Z,0.47
2018-09-14T03:19:39.753Z,0.50
2018-09-14T03:22:10.693Z,0.60
2018-09-14T03:24:41.626Z,0.60
2018-09-14T03:27:12.567Z,0.47
2018-09-14T03:29:43.510Z,0.40
2018-09-14T03:32:14.573Z,0.40
2018-09-14T03:34:45.409Z,0.50
2018-09-14T03:37:16.358Z,0.40
2018-09-14T03:39:47.304Z,0.50
2018-09-14T03:42:18.277Z,0.40
2018-09-14T03:44:49.234Z,0.70
2018-09-14T03:47:20.177Z,0.50
2018-09-14T03:49:51.141Z,0.60
2018-09-14T03:52:22.089Z,0.50
2018-09-14T03:54:55.055Z,0.57
2018-09-14T03:57:26.067Z,0.70
2018-09-14T03:59:57.008Z,0.43
2018-09-14T04:02:27.968Z,0.60
2018-09-14T04:04:58.896Z,0.50
2018-09-14T04:07:29.875Z,0.30
2018-09-14T04:10:00.822Z,0.40
2018-09-14T04:12:31.771Z,0.60
2018-09-14T04:15:02.701Z,0.60
2018-09-14T04:17:33.656Z,0.40
2018-09-14T04:20:04.655Z,0.40
2018-09-14T04:22:35.594Z,0.30
2018-09-14T04:25:06.533Z,0.60
2018-09-14T04:27:37.620Z,0.40
2018-09-14T04:30:08.551Z,0.40
2018-09-14T04:32:39.515Z,0.40
2018-09-14T04:35:10.454Z,0.50
2018-09-14T04:37:41.397Z,0.40
2018-09-14T04:40:12.337Z,0.50
2018-09-14T04:42:43.306Z,0.40
2018-09-14T04:45:14.241Z,0.40
2018-09-14T04:47:45.195Z,0.50
2018-09-14T04:50:16.130Z,0.43
2018-09-14T04:52:47.099Z,0.33
2018-09-14T04:55:18.034Z,0.37
2018-09-14T04:57:49.056Z,0.50
2018-09-14T05:00:19.988Z,0.70
2018-09-14T05:02:50.948Z,0.47
2018-09-14T05:05:21.910Z,0.30
2018-09-14T05:07:52.876Z,0.30
2018-09-14T05:10:23.825Z,0.30
2018-09-14T05:12:54.766Z,0.40
2018-09-14T05:15:25.741Z,0.40
2018-09-14T05:17:56.741Z,0.50
2018-09-14T05:20:27.739Z,0.50
2018-09-14T05:22:59.022Z,0.27
2018-09-14T05:25:30.320Z,0.40
2018-09-14T05:28:01.269Z,0.30
2018-09-14T05:30:32.217Z,0.50
2018-09-14T05:33:03.151Z,0.40
2018-09-14T05:35:34.111Z,0.73
2018-09-14T05:38:05.111Z,0.50
2018-09-14T05:40:36.078Z,0.70
2018-09-14T05:43:07.127Z,0.40
2018-09-14T05:45:38.297Z,0.40
2018-09-14T05:48:09.273Z,0.60
2018-09-14T05:50:40.674Z,0.33
2018-09-14T05:53:11.646Z,0.30
2018-09-14T05:55:42.597Z,0.50
2018-09-14T05:58:13.582Z,0.40
2018-09-14T06:00:44.525Z,0.40
2018-09-14T06:03:15.473Z,0.50
2018-09-14T06:05:46.406Z,0.40
2018-09-14T06:08:17.401Z,0.40
2018-09-14T06:10:48.350Z,0.50
2018-09-14T06:13:19.297Z,0.40
2018-09-14T06:15:50.291Z,0.50
2018-09-14T06:18:21.238Z,0.50
2018-09-14T06:20:52.220Z,0.53
2018-09-14T06:23:23.327Z,0.40
2018-09-14T06:25:54.275Z,0.40
2018-09-14T06:28:25.223Z,0.30
2018-09-14T06:30:56.169Z,0.30
2018-09-14T06:33:27.113Z,0.50
2018-09-14T06:35:58.045Z,0.30
2018-09-14T06:38:29.018Z,0.60
2018-09-14T06:40:59.949Z,0.30
2018-09-14T06:43:30.907Z,0.47
2018-09-14T06:46:01.853Z,0.40
2018-09-14T06:48:32.793Z,0.37
2018-09-14T06:51:03.727Z,0.40
2018-09-14T06:53:34.689Z,0.40
2018-09-14T06:56:05.738Z,0.43
2018-09-14T06:58:36.685Z,0.40
2018-09-14T07:01:07.622Z,0.30
2018-09-14T07:03:38.598Z,0.30
2018-09-14T07:06:09.563Z,0.40
2018-09-14T07:08:40.534Z,0.33
2018-09-14T07:11:11.495Z,0.40
2018-09-14T07:13:42.449Z,0.40
2018-09-14T07:16:13.477Z,0.30
2018-09-14T07:18:44.443Z,0.30
2018-09-14T07:21:15.469Z,0.40
2018-09-14T07:23:46.398Z,0.53
2018-09-14T07:26:17.390Z,0.40
2018-09-14T07:28:48.559Z,0.30
2018-09-14T07:31:19.565Z,0.30
2018-09-14T07:33:50.481Z,0.40
2018-09-14T07:36:21.431Z,0.50
2018-09-14T07:38:52.368Z,0.50
2018-09-14T07:41:23.375Z,0.40
2018-09-14T07:43:54.314Z,0.30
2018-09-14T07:46:25.272Z,0.47
2018-09-14T07:48:56.233Z,0.60
2018-09-14T07:51:27.332Z,0.40
2018-09-14T07:53:58.269Z,0.30
2018-09-14T07:56:29.216Z,0.40
2018-09-14T07:59:00.146Z,0.60
2018-09-14T08:01:31.103Z,0.30
2018-09-14T08:04:02.530Z,0.40
2018-09-14T08:06:33.594Z,0.70
2018-09-14T08:09:04.540Z,0.33
2018-09-14T08:11:35.489Z,0.43
2018-09-14T08:14:06.429Z,0.30
2018-09-14T08:16:37.635Z,0.50
2018-09-14T08:19:08.573Z,0.40
2018-09-14T08:21:39.679Z,0.30
2018-09-14T08:24:10.547Z,0.30
2018-09-14T08:26:41.531Z,0.40
2018-09-14T08:29:12.535Z,0.40
2018-09-14T08:31:43.457Z,0.30
2018-09-14T08:34:14.450Z,0.30
2018-09-14T08:36:45.380Z,0.30
2018-09-14T08:39:16.345Z,0.43
2018-09-14T08:41:47.272Z,0.30
2018-09-14T08:44:18.281Z,0.40
2018-09-14T08:46:49.251Z,0.30
2018-09-14T08:49:20.173Z,0.30
2018-09-14T08:51:51.129Z,0.40
2018-09-14T08:54:22.100Z,0.43
2018-09-14T08:56:53.162Z,0.40
2018-09-14T08:59:24.136Z,0.33
2018-09-14T09:01:55.103Z,0.40
2018-09-14T09:04:26.049Z,0.30
2018-09-14T09:06:57.022Z,0.30
2018-09-14T09:09:27.962Z,0.37
2018-09-14T09:11:58.917Z,0.20
2018-09-14T09:14:29.849Z,0.50
2018-09-14T09:17:00.825Z,0.30
2018-09-14T09:19:31.815Z,0.47
2018-09-14T09:22:03.519Z,0.20
2018-09-14T09:24:34.463Z,0.30
2018-09-14T09:27:05.427Z,0.47
2018-09-14T09:29:36.435Z,0.50
2018-09-14T09:32:07.375Z,0.30
2018-09-14T09:34:38.322Z,0.30
2018-09-14T09:37:09.261Z,0.40
2018-09-14T09:39:40.253Z,0.47
2018-09-14T09:42:11.208Z,0.40
2018-09-14T09:44:42.161Z,0.20
2018-09-14T09:47:13.219Z,0.40
2018-09-14T09:49:44.094Z,0.40
2018-09-14T09:52:15.052Z,0.40
2018-09-14T09:54:46.021Z,0.43
2018-09-14T09:57:17.125Z,0.30
2018-09-14T09:59:48.066Z,0.40
2018-09-14T10:02:24.741Z,0.40
2018-09-14T10:05:01.326Z,0.30
2018-09-14T10:07:32.261Z,0.30
2018-09-14T10:10:03.213Z,0.20
2018-09-14T10:12:34.161Z,0.30
2018-09-14T10:15:05.195Z,0.27
2018-09-14T10:17:36.110Z,0.30
2018-09-14T10:20:07.053Z,0.30
2018-09-14T10:22:38.000Z,0.20
2018-09-14T10:25:09.010Z,0.40
2018-09-14T10:27:39.954Z,0.30
2018-09-14T10:30:10.927Z,0.20
2018-09-14T10:32:41.861Z,0.20
2018-09-14T10:35:12.894Z,0.40
2018-09-14T10:37:43.742Z,0.40
2018-09-14T10:40:14.765Z,0.30
2018-09-14T10:42:45.740Z,0.40
2018-09-14T10:45:16.719Z,0.30
2018-09-14T10:47:47.657Z,0.30
2018-09-14T10:50:18.873Z,0.30
2018-09-14T10:52:49.828Z,0.30
2018-09-14T10:55:20.839Z,0.30
2018-09-14T10:57:51.741Z,0.50
2018-09-14T11:00:22.733Z,0.30
2018-09-14T11:02:53.725Z,0.30
2018-09-14T11:05:24.669Z,0.20
2018-09-14T11:07:55.621Z,0.43
2018-09-14T11:10:26.577Z,0.27
2018-09-14T11:12:57.574Z,0.30
2018-09-14T11:15:28.480Z,0.40
2018-09-14T11:17:59.442Z,0.20
2018-09-14T11:20:30.863Z,0.30
2018-09-14T11:23:01.781Z,0.30
2018-09-14T11:25:32.798Z,0.30
2018-09-14T11:28:03.873Z,0.20
2018-09-14T11:30:34.685Z,0.30
2018-09-14T11:33:05.634Z,0.20
2018-09-14T11:35:36.597Z,0.30
2018-09-14T11:38:07.580Z,0.30
2018-09-14T11:40:38.604Z,0.20
2018-09-14T11:43:09.539Z,0.30
2018-09-14T11:45:41.025Z,0.60
2018-09-14T11:48:12.049Z,0.30
2018-09-14T11:50:43.000Z,0.27
2018-09-14T11:53:13.944Z,0.30
2018-09-14T11:55:44.889Z,0.30
2018-09-14T11:58:15.857Z,0.40
2018-09-14T12:00:47.697Z,0.27
2018-09-14T12:03:18.653Z,0.40
2018-09-14T12:05:49.594Z,0.30
2018-09-14T12:08:20.550Z,0.30
2018-09-14T12:10:51.493Z,0.30
2018-09-14T12:13:22.697Z,0.30
2018-09-14T12:15:53.624Z,0.30
2018-09-14T12:18:24.587Z,0.30
2018-09-14T12:20:55.570Z,0.30
2018-09-14T12:23:26.617Z,0.20
2018-09-14T12:25:57.578Z,0.27
2018-09-14T12:28:28.579Z,0.20
2018-09-14T12:30:59.481Z,0.33
2018-09-14T12:33:30.413Z,0.30
2018-09-14T12:36:01.410Z,0.30
2018-09-14T12:38:32.380Z,0.33
2018-09-14T12:41:03.345Z,0.40
2018-09-14T12:43:34.293Z,0.30
2018-09-14T12:46:06.314Z,0.30
2018-09-14T12:48:37.250Z,0.30
2018-09-14T12:51:08.200Z,0.30
2018-09-14T12:53:39.162Z,0.40
2018-09-14T12:56:10.134Z,0.30
2018-09-14T12:58:41.112Z,0.20
2018-09-14T13:01:12.044Z,0.27
2018-09-14T13:03:43.008Z,0.30
2018-09-14T13:06:13.978Z,0.30
2018-09-14T13:08:44.962Z,0.40
2018-09-14T13:11:16.116Z,0.30
2018-09-14T13:13:47.040Z,0.30
2018-09-14T13:16:17.996Z,0.50
2018-09-14T13:18:48.949Z,0.20
2018-09-14T13:21:19.889Z,0.30
2018-09-14T13:23:50.833Z,0.20
2018-09-14T13:26:21.797Z,0.20
2018-09-14T13:28:52.781Z,0.30
2018-09-14T13:31:23.753Z,0.30
2018-09-14T13:33:54.785Z,0.30
2018-09-14T13:36:25.658Z,0.30
2018-09-14T13:38:56.869Z,0.30
2018-09-14T13:41:28.621Z,0.20
2018-09-14T13:43:59.557Z,0.30
2018-09-14T13:46:30.497Z,0.30
2018-09-14T13:49:01.452Z,0.30
2018-09-14T13:51:32.396Z,0.20
2018-09-14T13:54:03.354Z,0.27
2018-09-14T13:56:34.310Z,0.30
2018-09-14T13:59:05.262Z,0.20
2018-09-14T14:01:36.290Z,0.30
2018-09-14T14:04:07.168Z,0.23
2018-09-14T14:06:38.122Z,0.40
2018-09-14T14:09:10.366Z,0.50
2018-09-14T14:11:41.341Z,0.40
2018-09-14T14:14:12.288Z,0.40
2018-09-14T14:16:43.259Z,0.20
2018-09-14T14:19:14.167Z,0.30
2018-09-14T14:21:45.108Z,0.40
2018-09-14T14:24:16.069Z,0.30
2018-09-14T14:26:47.028Z,0.20
2018-09-14T14:29:18.003Z,0.30
2018-09-14T14:31:49.037Z,0.30
2018-09-14T14:34:19.996Z,0.20
2018-09-14T14:36:50.969Z,0.30
2018-09-14T14:39:21.925Z,0.30
2018-09-14T14:41:52.960Z,0.30
2018-09-14T14:44:24.017Z,0.30
2018-09-14T14:46:54.946Z,0.20
2018-09-14T14:49:25.937Z,0.20
2018-09-14T14:51:56.881Z,0.30
2018-09-14T14:54:27.837Z,0.20
2018-09-14T14:56:58.769Z,0.27
2018-09-14T14:59:29.745Z,0.40
2018-09-14T15:02:00.737Z,0.30
2018-09-14T15:04:32.184Z,0.40
2018-09-14T15:07:03.217Z,0.30
2018-09-14T15:09:34.193Z,0.40
2018-09-14T15:12:05.125Z,0.20
2018-09-14T15:14:36.089Z,0.23
2018-09-14T15:17:07.109Z,0.20
2018-09-14T15:19:38.071Z,0.20
2018-09-14T15:22:09.009Z,0.30
2018-09-14T15:24:39.944Z,0.20
2018-09-14T15:27:10.885Z,0.40
2018-09-14T15:29:42.066Z,0.20
2018-09-14T15:32:13.020Z,0.20
2018-09-14T15:34:43.995Z,0.20
2018-09-14T15:37:14.937Z,0.30
2018-09-14T15:39:45.905Z,0.20
2018-09-14T15:42:16.862Z,0.30
2018-09-14T15:44:47.829Z,0.20
2018-09-14T15:47:18.769Z,0.30
2018-09-14T15:49:49.742Z,0.30
2018-09-14T15:52:20.777Z,0.27
2018-09-14T15:54:51.728Z,0.30
2018-09-14T15:57:22.669Z,0.30
2018-09-14T15:59:53.621Z,0.40
2018-09-14T16:02:24.593Z,0.60
2018-09-14T16:04:55.594Z,0.30
2018-09-14T16:07:26.557Z,0.30
2018-09-14T16:09:57.524Z,0.30
2018-09-14T16:12:28.460Z,0.30
2018-09-14T16:14:59.409Z,0.20
2018-09-14T16:17:30.362Z,0.20
2018-09-14T16:20:01.298Z,0.27
2018-09-14T16:22:32.239Z,0.23
2018-09-14T16:25:03.425Z,0.20
2018-09-14T16:27:34.678Z,0.20
2018-09-14T16:30:05.634Z,0.37
2018-09-14T16:32:36.596Z,0.30
2018-09-14T16:35:07.524Z,0.23
2018-09-14T16:37:38.472Z,0.30
2018-09-14T16:40:09.406Z,0.30
2018-09-14T16:42:41.099Z,0.33
2018-09-14T16:45:12.093Z,0.30
2018-09-14T16:47:43.046Z,0.30
2018-09-14T16:50:14.039Z,0.30
2018-09-14T16:52:44.991Z,0.30
2018-09-14T16:55:15.922Z,0.20
2018-09-14T16:57:46.876Z,0.20
2018-09-14T17:00:17.812Z,0.30
2018-09-14T17:02:48.808Z,0.30
2018-09-14T17:05:19.700Z,0.30
2018-09-14T17:07:50.633Z,0.30
2018-09-14T17:10:21.573Z,0.20
2018-09-14T17:12:52.513Z,0.30
2018-09-14T17:15:23.441Z,0.40
2018-09-14T17:17:55.461Z,0.27
2018-09-14T17:20:26.381Z,0.30
2018-09-14T17:22:57.325Z,0.40
2018-09-14T17:25:28.513Z,0.20
2018-09-14T17:27:59.471Z,0.30
2018-09-14T17:30:30.405Z,0.43
2018-09-14T17:33:01.366Z,0.30
2018-09-14T17:35:32.320Z,0.37
2018-09-14T17:38:03.345Z,0.30
2018-09-14T17:40:34.225Z,0.30
2018-09-14T17:43:05.265Z,0.40
2018-09-14T17:45:36.224Z,0.30
2018-09-14T17:48:07.169Z,0.40
2018-09-14T17:50:38.136Z,0.30
2018-09-14T17:53:09.078Z,0.27
2018-09-14T17:55:40.050Z,0.30
2018-09-14T17:58:11.004Z,0.30
2018-09-14T18:00:41.945Z,0.30
2018-09-14T18:03:12.920Z,0.40
2018-09-14T18:05:43.902Z,0.30
2018-09-14T18:08:14.833Z,0.40
2018-09-14T18:10:46.260Z,0.30
2018-09-14T18:13:17.305Z,0.27
2018-09-14T18:15:48.276Z,0.30
2018-09-14T18:18:19.205Z,0.40
2018-09-14T18:20:50.169Z,0.40
2018-09-14T18:23:21.105Z,0.20
2018-09-14T18:25:52.116Z,0.50
2018-09-14T18:28:23.072Z,0.30
2018-09-14T18:30:54.045Z,0.50
2018-09-14T18:33:25.005Z,0.30
2018-09-14T18:35:56.081Z,0.40
2018-09-14T18:38:27.841Z,0.30
2018-09-14T18:40:58.789Z,0.23
2018-09-14T18:43:29.745Z,0.23
2018-09-14T18:46:00.840Z,0.30
2018-09-14T18:48:31.805Z,0.23
2018-09-14T18:51:02.745Z,0.30
2018-09-14T18:53:33.822Z,0.30
2018-09-14T18:56:04.769Z,0.40
2018-09-14T18:58:35.701Z,0.23
2018-09-14T19:01:06.659Z,0.30
2018-09-14T19:03:37.614Z,0.40
2018-09-14T19:06:08.585Z,0.40
2018-09-14T19:08:39.526Z,0.47
2018-09-14T19:11:10.471Z,0.20
2018-09-14T19:13:41.411Z,0.47
2018-09-14T19:16:12.352Z,0.20
2018-09-14T19:18:43.302Z,0.43
2018-09-14T19:21:14.258Z,0.30
2018-09-14T19:23:45.275Z,0.40
2018-09-14T19:26:16.200Z,0.30
2018-09-14T19:28:47.153Z,0.20
2018-09-14T19:31:18.144Z,0.20
2018-09-14T19:33:49.153Z,0.20
2018-09-14T19:36:20.158Z,0.33
2018-09-14T19:38:51.167Z,0.30
2018-09-14T19:41:22.702Z,0.27
2018-09-14T19:43:53.656Z,0.40
2018-09-14T19:46:24.625Z,0.30
2018-09-14T19:48:55.562Z,0.30
2018-09-14T19:51:26.728Z,0.27
2018-09-14T19:53:57.483Z,0.30
2018-09-14T19:56:28.494Z,0.40
2018-09-14T19:58:59.438Z,0.30
2018-09-14T20:01:30.365Z,0.30
2018-09-14T20:04:01.341Z,0.30
2018-09-14T20:06:32.306Z,0.30
2018-09-14T20:09:03.797Z,0.40
2018-09-14T20:11:34.768Z,0.30
2018-09-14T20:14:05.721Z,0.37
2018-09-14T20:16:36.681Z,0.30
2018-09-14T20:19:07.643Z,0.20
2018-09-14T20:21:38.576Z,0.20
2018-09-14T20:24:09.564Z,0.23
2018-09-14T20:26:40.514Z,0.30
2018-09-14T20:29:11.455Z,0.20
2018-09-14T20:31:42.388Z,0.30
2018-09-14T20:34:13.341Z,0.20
2018-09-14T20:36:44.307Z,0.30
2018-09-14T20:39:15.236Z,0.30
2018-09-14T20:41:46.174Z,0.30
2018-09-14T20:44:17.127Z,0.33
2018-09-14T20:46:48.106Z,0.30
2018-09-14T20:49:19.121Z,0.33
2018-09-14T20:51:50.076Z,0.30
2018-09-14T20:54:21.158Z,0.30
2018-09-14T20:56:52.140Z,0.20
2018-09-14T20:59:23.094Z,0.20
2018-09-14T21:01:54.069Z,0.37
2018-09-14T21:04:25.072Z,0.40
2018-09-14T21:06:55.956Z,0.30
2018-09-14T21:09:26.893Z,0.27
2018-09-14T21:11:57.828Z,0.23
2018-09-14T21:14:28.777Z,0.37
2018-09-14T21:16:59.729Z,0.33
2018-09-14T21:19:30.665Z,0.40
2018-09-14T21:22:01.654Z,0.40
2018-09-14T21:24:32.595Z,0.37
2018-09-14T21:27:03.558Z,0.30
2018-09-14T21:29:34.505Z,0.40
2018-09-14T21:32:05.468Z,0.30
2018-09-14T21:34:36.479Z,0.30
2018-09-14T21:37:07.471Z,0.40
2018-09-14T21:39:38.404Z,0.30
2018-09-14T21:42:09.367Z,0.40
2018-09-14T21:44:40.310Z,0.30
2018-09-14T21:47:11.250Z,0.30
2018-09-14T21:49:42.205Z,0.30
2018-09-14T21:52:13.140Z,0.30
2018-09-14T21:54:44.173Z,0.30
2018-09-14T21:57:15.170Z,0.30
2018-09-14T21:59:46.097Z,0.27
2018-09-14T22:02:17.057Z,0.40
2018-09-14T22:04:48.013Z,0.30
2018-09-14T22:07:18.960Z,0.33
2018-09-14T22:09:49.988Z,0.30
2018-09-14T22:12:20.925Z,0.30
2018-09-14T22:14:51.874Z,0.33
2018-09-14T22:17:22.801Z,0.30
2018-09-14T22:19:53.740Z,0.33
2018-09-14T22:22:24.693Z,0.30
2018-09-14T22:24:55.973Z,0.40
2018-09-14T22:27:26.909Z,0.40
2018-09-14T22:29:57.862Z,0.30
2018-09-14T22:32:28.810Z,0.30
2018-09-14T22:34:59.789Z,0.40
2018-09-14T22:37:30.760Z,0.30
2018-09-14T22:40:01.710Z,0.40
2018-09-14T22:42:32.662Z,0.30
2018-09-14T22:45:03.624Z,0.40
2018-09-14T22:47:34.582Z,0.40
2018-09-14T22:50:05.551Z,0.40
2018-09-14T22:52:36.490Z,0.30
2018-09-14T22:55:07.491Z,0.40
2018-09-14T22:57:38.468Z,0.30
2018-09-14T23:00:09.445Z,0.40
2018-09-14T23:02:40.409Z,0.30
2018-09-14T23:05:11.349Z,0.40
2018-09-14T23:07:42.297Z,0.40
2018-09-14T23:10:13.285Z,0.40
2018-09-14T23:12:44.236Z,0.40
2018-09-14T23:15:15.345Z,0.37
2018-09-14T23:17:46.284Z,0.47
2018-09-14T23:20:17.229Z,0.40
2018-09-14T23:22:48.256Z,0.33
2018-09-14T23:25:19.194Z,0.40
2018-09-14T23:27:50.140Z,0.40
2018-09-14T23:30:21.065Z,0.40
2018-09-14T23:32:52.030Z,0.40
2018-09-14T23:35:22.974Z,0.30
2018-09-14T23:37:53.919Z,0.30
2018-09-14T23:40:24.861Z,0.30
2018-09-14T23:42:55.800Z,0.30
2018-09-14T23:45:26.737Z,0.40
2018-09-14T23:47:57.672Z,0.40
2018-09-14T23:50:28.616Z,0.40
2018-09-14T23:52:59.624Z,0.30
2018-09-14T23:55:30.558Z,0.40
2018-09-14T23:58:01.521Z,0.37
